createdAt,value
2018-09-03T00:01:27.386Z,21.17
2018-09-03T00:04:26.659Z,22.87
2018-09-03T00:07:25.634Z,21.70
2018-09-03T00:10:23.803Z,22.17
2018-09-03T00:13:21.709Z,21.87
2018-09-03T00:16:19.910Z,21.00
2018-09-03T00:19:18.052Z,21.67
2018-09-03T00:22:16.056Z,19.63
2018-09-03T00:25:14.218Z,20.07
2018-09-03T00:28:12.400Z,19.40
2018-09-03T00:31:17.426Z,17.63
2018-09-03T00:34:21.471Z,18.07
2018-09-03T00:37:26.417Z,18.37
2018-09-03T00:40:30.724Z,17.60
2018-09-03T00:44:35.248Z,18.90
2018-09-03T00:47:33.365Z,19.77
2018-09-03T00:50:32.434Z,19.93
2018-09-03T00:53:31.670Z,19.93
2018-09-03T00:56:30.574Z,19.77
2018-09-03T00:59:30.754Z,18.87
2018-09-03T01:02:29.028Z,19.50
2018-09-03T01:05:27.785Z,19.37
2018-09-03T01:08:26.890Z,19.97
2018-09-03T01:11:25.512Z,20.30
2018-09-03T01:14:23.732Z,19.83
2018-09-03T01:17:22.070Z,18.33
2018-09-03T01:20:20.114Z,18.80
2018-09-03T01:23:18.577Z,18.43
2018-09-03T01:26:16.857Z,17.43
2018-09-03T01:29:16.456Z,17.97
2018-09-03T01:32:14.830Z,17.43
2018-09-03T01:35:13.346Z,17.40
2018-09-03T01:38:12.361Z,16.77
2018-09-03T01:41:10.539Z,16.53
2018-09-03T01:44:08.908Z,16.03
2018-09-03T01:47:07.883Z,15.70
2018-09-03T01:50:06.044Z,15.03
2018-09-03T01:53:04.218Z,14.07
2018-09-03T01:56:04.546Z,15.13
2018-09-03T01:59:02.894Z,14.43
2018-09-03T02:02:01.081Z,13.17
2018-09-03T02:04:59.318Z,12.97
2018-09-03T02:07:57.687Z,13.07
2018-09-03T02:10:55.733Z,13.53
2018-09-03T02:13:54.511Z,15.33
2018-09-03T02:16:54.490Z,14.90
2018-09-03T02:19:52.676Z,15.40
2018-09-03T02:22:50.910Z,15.00
2018-09-03T02:25:50.172Z,16.97
2018-09-03T02:28:49.327Z,15.10
2018-09-03T02:31:47.695Z,17.13
2018-09-03T02:34:46.998Z,16.50
2018-09-03T02:37:45.989Z,16.90
2018-09-03T02:40:44.256Z,16.43
2018-09-03T02:43:42.367Z,16.13
2018-09-03T02:46:40.469Z,17.00
2018-09-03T02:49:38.443Z,16.87
2018-09-03T02:52:36.667Z,16.10
2018-09-03T02:55:34.695Z,16.83
2018-09-03T02:58:32.661Z,17.17
2018-09-03T03:01:30.816Z,16.67
2018-09-03T03:04:28.889Z,18.33
2018-09-03T03:07:27.057Z,17.10
2018-09-03T03:10:25.131Z,18.43
2018-09-03T03:13:23.275Z,16.40
2018-09-03T03:16:22.563Z,18.30
2018-09-03T03:19:20.782Z,17.77
2018-09-03T03:22:19.590Z,16.67
2018-09-03T03:25:17.561Z,17.27
2018-09-03T03:28:16.446Z,17.43
2018-09-03T03:31:14.400Z,19.30
2018-09-03T03:34:12.663Z,17.30
2018-09-03T03:37:10.731Z,19.10
2018-09-03T03:40:09.003Z,16.87
2018-09-03T03:43:07.024Z,18.30
2018-09-03T03:46:05.127Z,17.03
2018-09-03T03:49:03.409Z,16.80
2018-09-03T03:52:01.522Z,18.50
2018-09-03T03:55:00.708Z,17.00
2018-09-03T03:57:58.696Z,17.63
2018-09-03T04:00:56.737Z,16.97
2018-09-03T04:03:54.815Z,18.10
2018-09-03T04:06:52.863Z,20.00
2018-09-03T04:09:51.038Z,17.23
2018-09-03T04:12:53.996Z,16.83
2018-09-03T04:15:52.156Z,17.87
2018-09-03T04:18:50.218Z,17.27
2018-09-03T04:21:48.676Z,17.90
2018-09-03T04:24:46.739Z,18.93
2018-09-03T04:27:44.808Z,18.90
2018-09-03T04:30:42.971Z,18.13
2018-09-03T04:33:41.063Z,18.97
2018-09-03T04:36:39.109Z,20.03
2018-09-03T04:39:37.166Z,17.97
2018-09-03T04:42:35.129Z,18.87
2018-09-03T04:45:33.544Z,18.90
2018-09-03T04:48:32.035Z,17.87
2018-09-03T04:51:30.116Z,18.93
2018-09-03T04:54:28.418Z,17.90
2018-09-03T04:57:26.747Z,17.13
2018-09-03T05:00:25.480Z,18.00
2018-09-03T05:03:24.392Z,17.63
2018-09-03T05:06:22.556Z,19.20
2018-09-03T05:09:20.782Z,17.47
2018-09-03T05:12:18.962Z,18.43
2018-09-03T05:15:17.039Z,20.50
2018-09-03T05:18:15.312Z,19.97
2018-09-03T05:21:14.495Z,21.00
2018-09-03T05:24:12.460Z,17.13
2018-09-03T05:27:10.621Z,16.87
2018-09-03T05:30:08.792Z,16.23
2018-09-03T05:33:06.952Z,16.97
2018-09-03T05:36:05.185Z,16.80
2018-09-03T05:39:03.377Z,15.83
2018-09-03T05:42:01.484Z,16.20
2018-09-03T05:44:59.605Z,16.50
2018-09-03T05:47:57.770Z,14.77
2018-09-03T05:50:55.827Z,16.70
2018-09-03T05:53:54.042Z,16.27
2018-09-03T05:56:51.960Z,16.73
2018-09-03T05:59:50.145Z,15.77
2018-09-03T06:02:48.229Z,16.33
2018-09-03T06:05:46.324Z,16.87
2018-09-03T06:08:44.281Z,17.07
2018-09-03T06:11:43.167Z,17.83
2018-09-03T06:14:45.478Z,15.90
2018-09-03T06:17:44.344Z,16.30
2018-09-03T06:20:42.460Z,15.13
2018-09-03T06:23:40.620Z,13.93
2018-09-03T06:26:38.617Z,16.30
2018-09-03T06:29:36.635Z,13.40
2018-09-03T06:32:34.690Z,16.93
2018-09-03T06:35:32.872Z,14.90
2018-09-03T06:38:30.995Z,14.50
2018-09-03T06:41:29.033Z,18.90
2018-09-03T06:44:27.142Z,18.10
2018-09-03T06:47:25.316Z,14.23
2018-09-03T06:50:24.628Z,13.03
2018-09-03T06:53:23.098Z,14.90
2018-09-03T06:56:21.228Z,15.17
2018-09-03T06:59:19.283Z,15.13
2018-09-03T07:03:42.091Z,14.43
2018-09-03T07:06:40.270Z,15.20
2018-09-03T07:09:38.286Z,15.23
2018-09-03T07:12:36.464Z,13.80
2018-09-03T07:15:34.726Z,14.43
2018-09-03T07:18:32.896Z,14.13
2018-09-03T07:21:31.057Z,12.20
2018-09-03T07:24:30.036Z,12.67
2018-09-03T07:27:29.272Z,13.23
2018-09-03T07:30:30.151Z,12.03
2018-09-03T07:33:29.127Z,12.07
2018-09-03T07:36:28.732Z,14.80
2018-09-03T07:39:28.559Z,17.00
2018-09-03T07:42:27.680Z,13.13
2018-09-03T07:45:25.717Z,13.97
2018-09-03T07:48:23.584Z,11.53
2018-09-03T07:51:22.652Z,10.07
2018-09-03T07:54:21.826Z,13.27
2018-09-03T07:57:21.813Z,11.63
2018-09-03T08:00:21.938Z,11.27
2018-09-03T08:03:22.168Z,10.40
2018-09-03T08:06:21.544Z,10.00
2018-09-03T08:09:23.614Z,11.07
2018-09-03T08:12:23.711Z,10.80
2018-09-03T08:15:25.253Z,9.87
2018-09-03T08:18:24.657Z,9.93
2018-09-03T08:21:24.807Z,11.23
2018-09-03T08:24:25.892Z,11.00
2018-09-03T08:27:25.827Z,11.17
2018-09-03T08:30:24.797Z,8.83
2018-09-03T08:33:23.941Z,9.87
2018-09-03T08:36:23.839Z,8.97
2018-09-03T08:39:22.005Z,9.93
2018-09-03T08:42:21.301Z,9.60
2018-09-03T08:45:20.390Z,9.13
2018-09-03T08:48:19.446Z,9.00
2018-09-03T08:51:18.530Z,7.70
2018-09-03T08:54:16.509Z,8.43
2018-09-03T08:57:15.582Z,8.30
2018-09-03T09:00:14.754Z,7.97
2018-09-03T09:03:17.830Z,8.30
2018-09-03T09:06:17.589Z,8.60
2018-09-03T09:09:17.580Z,7.40
2018-09-03T09:12:15.682Z,7.87
2018-09-03T09:15:13.930Z,8.33
2018-09-03T09:18:12.936Z,9.03
2018-09-03T09:21:11.129Z,7.17
2018-09-03T09:24:09.181Z,6.90
2018-09-03T09:27:07.246Z,6.70
2018-09-03T09:30:05.545Z,7.80
2018-09-03T09:33:04.442Z,7.47
2018-09-03T09:36:03.552Z,8.50
2018-09-03T09:39:02.644Z,8.20
2018-09-03T09:42:00.889Z,7.17
2018-09-03T09:44:59.755Z,6.27
2018-09-03T09:47:59.769Z,6.30
2018-09-03T09:50:57.865Z,7.37
2018-09-03T09:53:57.038Z,6.97
2018-09-03T09:56:56.128Z,6.77
2018-09-03T09:59:55.083Z,7.87
2018-09-03T10:02:53.408Z,6.50
2018-09-03T10:05:52.434Z,6.20
2018-09-03T10:08:52.455Z,5.90
2018-09-03T10:11:53.579Z,6.73
2018-09-03T10:14:51.763Z,5.20
2018-09-03T10:17:50.209Z,7.17
2018-09-03T10:20:49.178Z,5.92
2018-09-03T10:23:48.107Z,6.37
2018-09-03T10:26:46.106Z,7.67
2018-09-03T10:29:44.996Z,6.10
2018-09-03T10:32:43.153Z,6.97
2018-09-03T10:35:41.228Z,6.30
2018-09-03T10:38:40.207Z,5.70
2018-09-03T10:41:39.381Z,5.50
2018-09-03T10:44:38.542Z,5.33
2018-09-03T10:47:36.535Z,5.37
2018-09-03T10:50:34.640Z,4.90
2018-09-03T10:53:32.718Z,4.80
2018-09-03T10:56:30.967Z,5.30
2018-09-03T10:59:29.223Z,5.50
2018-09-03T11:02:28.202Z,4.40
2018-09-03T11:05:26.965Z,5.60
2018-09-03T11:08:25.045Z,4.60
2018-09-03T11:11:23.959Z,5.13
2018-09-03T11:14:22.074Z,4.80
2018-09-03T11:17:20.089Z,4.83
2018-09-03T11:20:21.224Z,5.10
2018-09-03T11:23:19.586Z,4.93
2018-09-03T11:26:17.721Z,4.67
2018-09-03T11:29:15.745Z,4.70
2018-09-03T11:32:13.876Z,8.60
2018-09-03T11:35:12.345Z,5.60
2018-09-03T11:38:10.638Z,5.50
2018-09-03T11:41:08.748Z,5.53
2018-09-03T11:44:06.824Z,5.00
2018-09-03T11:47:04.816Z,5.47
2018-09-03T11:50:02.952Z,5.40
2018-09-03T11:53:00.876Z,5.27
2018-09-03T11:55:58.764Z,4.40
2018-09-03T11:58:56.928Z,4.57
2018-09-03T12:01:55.152Z,4.47
2018-09-03T12:04:53.107Z,4.60
2018-09-03T12:07:51.145Z,4.17
2018-09-03T12:10:49.082Z,4.90
2018-09-03T12:13:47.911Z,5.23
2018-09-03T12:16:46.011Z,5.10
2018-09-03T12:19:44.172Z,6.10
2018-09-03T12:22:42.147Z,5.30
2018-09-03T12:25:41.074Z,4.07
2018-09-03T12:28:40.197Z,5.43
2018-09-03T12:31:38.252Z,4.70
2018-09-03T12:34:36.261Z,4.03
2018-09-03T12:37:34.372Z,4.20
2018-09-03T12:40:32.446Z,4.30
2018-09-03T12:43:30.372Z,4.60
2018-09-03T12:46:28.630Z,4.47
2018-09-03T12:49:26.843Z,5.23
2018-09-03T12:52:25.900Z,4.10
2018-09-03T12:55:23.784Z,4.30
2018-09-03T12:58:21.919Z,4.80
2018-09-03T13:01:19.936Z,4.10
2018-09-03T13:04:17.952Z,4.80
2018-09-03T13:07:17.060Z,4.37
2018-09-03T13:10:15.143Z,4.67
2018-09-03T13:13:13.038Z,4.93
2018-09-03T13:16:11.205Z,4.87
2018-09-03T13:19:09.571Z,4.60
2018-09-03T13:22:07.485Z,4.60
2018-09-03T13:25:05.503Z,4.77
2018-09-03T13:28:03.536Z,5.10
2018-09-03T13:31:01.664Z,4.87
2018-09-03T13:34:01.511Z,4.47
2018-09-03T13:36:59.575Z,4.47
2018-09-03T13:39:57.551Z,4.23
2018-09-03T13:42:55.603Z,4.93
2018-09-03T13:45:53.532Z,4.50
2018-09-03T13:48:51.413Z,5.63
2018-09-03T13:51:50.220Z,4.77
2018-09-03T13:54:48.131Z,5.13
2018-09-03T13:57:46.098Z,5.50
2018-09-03T14:00:44.060Z,5.57
2018-09-03T14:03:42.872Z,4.90
2018-09-03T14:06:40.692Z,4.90
2018-09-03T14:09:39.825Z,5.37
2018-09-03T14:12:37.935Z,5.13
2018-09-03T14:15:35.902Z,5.20
2018-09-03T14:18:35.791Z,5.53
2018-09-03T14:21:33.769Z,4.70
2018-09-03T14:24:31.830Z,4.67
2018-09-03T14:27:30.112Z,4.87
2018-09-03T14:30:28.124Z,5.33
2018-09-03T14:33:26.316Z,5.47
2018-09-03T14:36:24.427Z,5.53
2018-09-03T14:39:23.441Z,6.30
2018-09-03T14:42:22.427Z,5.83
2018-09-03T14:45:21.564Z,5.23
2018-09-03T14:48:19.457Z,4.73
2018-09-03T14:51:17.648Z,5.67
2018-09-03T14:54:15.688Z,6.30
2018-09-03T14:57:15.489Z,5.57
2018-09-03T15:00:13.467Z,5.47
2018-09-03T15:03:13.368Z,5.27
2018-09-03T15:06:11.207Z,4.67
2018-09-03T15:09:09.284Z,5.50
2018-09-03T15:12:09.265Z,4.23
2018-09-03T15:15:08.391Z,5.23
2018-09-03T15:18:07.291Z,4.73
2018-09-03T15:21:05.294Z,6.93
2018-09-03T15:24:05.549Z,4.50
2018-09-03T15:27:06.702Z,4.80
2018-09-03T15:30:06.986Z,4.83
2018-09-03T15:33:06.919Z,5.20
2018-09-03T15:36:05.993Z,4.53
2018-09-03T15:39:07.007Z,4.57
2018-09-03T15:42:07.215Z,5.08
2018-09-03T15:45:08.142Z,5.15
2018-09-03T15:48:09.156Z,4.28
2018-09-03T15:51:10.412Z,4.25
2018-09-03T15:54:10.576Z,5.08
2018-09-03T15:57:09.541Z,4.47
2018-09-03T16:00:07.600Z,4.85
2018-09-03T16:03:05.681Z,5.60
2018-09-03T16:06:04.628Z,4.70
2018-09-03T16:09:02.773Z,3.67
2018-09-03T16:12:00.768Z,4.10
2018-09-03T16:14:59.953Z,4.72
2018-09-03T16:17:58.033Z,4.10
2018-09-03T16:20:56.369Z,4.10
2018-09-03T16:23:54.073Z,3.70
2018-09-03T16:26:51.982Z,4.37
2018-09-03T16:29:50.044Z,4.80
2018-09-03T16:32:48.068Z,4.30
2018-09-03T16:35:46.284Z,3.98
2018-09-03T16:38:44.279Z,3.40
2018-09-03T16:41:42.205Z,4.22
2018-09-03T16:44:41.189Z,4.30
2018-09-03T16:47:57.661Z,3.60
2018-09-03T16:51:16.899Z,3.87
2018-09-03T16:54:15.988Z,3.27
2018-09-03T16:57:14.045Z,4.37
2018-09-03T17:00:13.337Z,3.77
2018-09-03T17:03:11.399Z,4.40
2018-09-03T17:06:10.057Z,4.28
2018-09-03T17:09:08.172Z,9.38
2018-09-03T17:12:15.488Z,4.27
2018-09-03T17:15:14.479Z,4.73
2018-09-03T17:18:12.737Z,3.90
2018-09-03T17:21:10.899Z,4.83
2018-09-03T17:24:09.173Z,4.87
2018-09-03T17:27:07.141Z,6.23
2018-09-03T17:30:05.628Z,4.17
2018-09-03T17:33:03.984Z,5.57
2018-09-03T17:36:02.016Z,4.70
2018-09-03T17:39:00.276Z,4.90
2018-09-03T17:41:59.489Z,4.90
2018-09-03T17:44:57.743Z,4.33
2018-09-03T17:47:55.947Z,4.77
2018-09-03T17:50:55.094Z,5.93
2018-09-03T17:53:53.976Z,5.43
2018-09-03T17:56:53.007Z,5.40
2018-09-03T17:59:50.978Z,5.30
2018-09-03T18:02:49.001Z,9.03
2018-09-03T18:05:48.059Z,6.90
2018-09-03T18:08:45.999Z,6.00
2018-09-03T18:11:45.198Z,6.83
2018-09-03T18:14:44.389Z,5.10
2018-09-03T18:17:42.675Z,6.70
2018-09-03T18:20:40.719Z,5.50
2018-09-03T18:23:38.806Z,5.43
2018-09-03T18:26:36.844Z,5.10
2018-09-03T18:29:35.024Z,8.33
2018-09-03T18:32:33.385Z,5.37
2018-09-03T18:35:32.469Z,8.70
2018-09-03T18:38:32.528Z,5.70
2018-09-03T18:41:30.512Z,7.97
2018-09-03T18:44:28.564Z,6.77
2018-09-03T18:47:28.695Z,6.43
2018-09-03T18:50:26.783Z,5.33
2018-09-03T18:53:26.080Z,6.10
2018-09-03T18:56:24.007Z,6.47
2018-09-03T18:59:22.095Z,5.80
2018-09-03T19:02:20.207Z,5.57
2018-09-03T19:05:18.345Z,6.27
2018-09-03T19:08:16.206Z,7.60
2018-09-03T19:11:14.106Z,7.00
2018-09-03T19:14:12.069Z,5.83
2018-09-03T19:17:10.909Z,9.37
2018-09-03T19:20:08.976Z,6.87
2018-09-03T19:23:07.105Z,8.77
2018-09-03T19:26:05.394Z,8.40
2018-09-03T19:29:03.447Z,8.40
2018-09-03T19:32:01.521Z,8.40
2018-09-03T19:35:00.696Z,8.27
2018-09-03T19:37:58.664Z,8.33
2018-09-03T19:40:56.719Z,6.60
2018-09-03T19:43:54.995Z,8.23
2018-09-03T19:46:52.962Z,7.10
2018-09-03T19:49:50.900Z,6.60
2018-09-03T19:52:48.860Z,7.70
2018-09-03T19:55:47.125Z,10.30
2018-09-03T19:58:45.423Z,7.27
2018-09-03T20:01:45.296Z,12.40
2018-09-03T20:04:44.078Z,8.87
2018-09-03T20:07:42.039Z,10.87
2018-09-03T20:10:43.295Z,9.70
2018-09-03T20:13:43.129Z,7.67
2018-09-03T20:16:43.329Z,8.10
2018-09-03T20:19:45.101Z,8.30
2018-09-03T20:22:45.822Z,9.77
2018-09-03T20:25:45.493Z,12.13
2018-09-03T20:28:46.911Z,8.27
2018-09-03T20:31:47.153Z,10.27
2018-09-03T20:34:47.938Z,10.90
2018-09-03T20:37:48.053Z,11.23
2018-09-03T20:40:49.628Z,9.70
2018-09-03T20:43:50.859Z,10.00
2018-09-03T20:46:49.824Z,9.13
2018-09-03T20:49:49.814Z,9.10
2018-09-03T20:52:49.722Z,9.23
2018-09-03T20:55:49.644Z,9.17
2018-09-03T20:58:49.832Z,9.60
2018-09-03T21:01:51.889Z,11.00
2018-09-03T21:04:56.190Z,10.03
2018-09-03T21:07:58.194Z,8.87
2018-09-03T21:10:59.261Z,8.73
2018-09-03T21:14:00.896Z,9.07
2018-09-03T21:17:10.022Z,9.03
2018-09-03T21:20:13.173Z,9.37
2018-09-03T21:23:16.404Z,12.40
2018-09-03T21:26:18.727Z,11.73
2018-09-03T21:29:20.267Z,10.20
2018-09-03T21:32:22.395Z,9.83
2018-09-03T21:35:21.107Z,9.70
2018-09-03T21:38:18.990Z,9.93
2018-09-03T21:41:18.187Z,10.00
2018-09-03T21:44:16.439Z,12.23
2018-09-03T21:47:15.234Z,10.03
2018-09-03T21:50:13.397Z,11.07
2018-09-03T21:53:11.462Z,9.17
2018-09-03T21:56:10.256Z,11.00
2018-09-03T21:59:08.400Z,9.40
2018-09-03T22:02:07.583Z,9.27
2018-09-03T22:05:05.640Z,9.43
2018-09-03T22:08:03.708Z,10.57
2018-09-03T22:11:01.774Z,11.57
2018-09-03T22:13:59.773Z,10.27
2018-09-03T22:16:58.929Z,10.57
2018-09-03T22:19:56.864Z,10.27
2018-09-03T22:22:54.931Z,10.57
2018-09-03T22:25:52.891Z,10.97
2018-09-03T22:28:51.047Z,10.73
2018-09-03T22:31:49.112Z,13.53
2018-09-03T22:34:47.049Z,10.47
2018-09-03T22:37:45.120Z,11.30
2018-09-03T22:40:44.294Z,10.13
2018-09-03T22:43:42.164Z,10.87
2018-09-03T22:46:41.204Z,12.63
2018-09-03T22:49:39.127Z,11.13
2018-09-03T22:52:37.276Z,14.47
2018-09-03T22:55:35.220Z,12.20
2018-09-03T22:58:33.090Z,12.07
2018-09-03T23:01:32.174Z,12.47
2018-09-03T23:04:30.238Z,11.93
2018-09-03T23:07:28.394Z,11.73
2018-09-03T23:10:26.483Z,11.07
2018-09-03T23:13:24.591Z,11.33
2018-09-03T23:16:23.526Z,12.17
2018-09-03T23:19:21.795Z,11.03
2018-09-03T23:22:20.849Z,10.30
2018-09-03T23:25:18.729Z,11.27
2018-09-03T23:28:16.648Z,11.93
2018-09-03T23:31:14.704Z,12.20
2018-09-03T23:34:12.668Z,11.67
2018-09-03T23:37:10.936Z,10.57
2018-09-03T23:40:08.892Z,14.10
2018-09-03T23:43:06.855Z,11.13
2018-09-03T23:46:04.917Z,10.57
2018-09-03T23:49:02.756Z,10.70
2018-09-03T23:52:00.935Z,12.27
2018-09-03T23:54:58.888Z,11.03
2018-09-03T23:57:56.926Z,12.50
